sensor_id;sensor_type;location;lat;lon;timestamp;P1;durP1;ratioP1;P2;durP2;ratioP2
70457;SDS011;57919;56.194;95.716;2023-11-22T00:02:18;27.93;;;11.87;;
70457;SDS011;57919;56.194;95.716;2023-11-22T00:12:20;22.55;;;8.77;;
70457;SDS011;57919;56.194;95.716;2023-11-22T00:22:24;14.80;;;3.83;;
70457;SDS011;57919;56.194;95.716;2023-11-22T00:32:28;37.80;;;18.00;;
70457;SDS011;57919;56.194;95.716;2023-11-22T00:42:30;33.10;;;21.37;;
70457;SDS011;57919;56.194;95.716;2023-11-22T00:52:32;78.25;;;33.15;;
70457;SDS011;57919;56.194;95.716;2023-11-22T01:02:35;11.93;;;7.83;;
70457;SDS011;57919;56.194;95.716;2023-11-22T01:12:40;28.10;;;24.63;;
70457;SDS011;57919;56.194;95.716;2023-11-22T01:22:43;33.67;;;21.98;;
70457;SDS011;57919;56.194;95.716;2023-11-22T01:32:45;22.13;;;9.40;;
70457;SDS011;57919;56.194;95.716;2023-11-22T01:42:47;16.30;;;7.77;;
70457;SDS011;57919;56.194;95.716;2023-11-22T01:52:49;25.35;;;8.32;;
70457;SDS011;57919;56.194;95.716;2023-11-22T02:02:51;13.20;;;7.65;;
70457;SDS011;57919;56.194;95.716;2023-11-22T02:12:54;5.37;;;2.83;;
70457;SDS011;57919;56.194;95.716;2023-11-22T02:22:57;41.43;;;21.03;;
70457;SDS011;57919;56.194;95.716;2023-11-22T02:33:02;42.17;;;16.35;;
70457;SDS011;57919;56.194;95.716;2023-11-22T02:43:06;15.87;;;14.23;;
70457;SDS011;57919;56.194;95.716;2023-11-22T02:53:10;12.93;;;7.47;;
70457;SDS011;57919;56.194;95.716;2023-11-22T03:03:12;10.43;;;5.35;;
70457;SDS011;57919;56.194;95.716;2023-11-22T03:13:14;10.57;;;5.60;;
70457;SDS011;57919;56.194;95.716;2023-11-22T03:23:17;6.50;;;2.53;;
70457;SDS011;57919;56.194;95.716;2023-11-22T03:33:19;13.55;;;5.38;;
70457;SDS011;57919;56.194;95.716;2023-11-22T03:43:21;9.20;;;5.85;;
70457;SDS011;57919;56.194;95.716;2023-11-22T03:53:23;17.33;;;5.63;;
70457;SDS011;57919;56.194;95.716;2023-11-22T04:03:27;14.57;;;5.90;;
70457;SDS011;57919;56.194;95.716;2023-11-22T04:13:29;22.25;;;9.40;;
70457;SDS011;57919;56.194;95.716;2023-11-22T04:23:32;6.93;;;3.67;;
70457;SDS011;57919;56.194;95.716;2023-11-22T04:33:34;23.57;;;11.00;;
70457;SDS011;57919;56.194;95.716;2023-11-22T04:43:37;40.92;;;18.25;;
70457;SDS011;57919;56.194;95.716;2023-11-22T04:53:39;13.37;;;4.77;;
70457;SDS011;57919;56.194;95.716;2023-11-22T05:03:41;17.70;;;7.37;;
70457;SDS011;57919;56.194;95.716;2023-11-22T05:13:44;6.30;;;3.70;;
70457;SDS011;57919;56.194;95.716;2023-11-22T05:23:46;11.07;;;4.85;;
70457;SDS011;57919;56.194;95.716;2023-11-22T05:33:48;11.30;;;3.37;;
70457;SDS011;57919;56.194;95.716;2023-11-22T05:43:50;10.80;;;5.67;;
70457;SDS011;57919;56.194;95.716;2023-11-22T05:53:53;8.75;;;2.88;;
70457;SDS011;57919;56.194;95.716;2023-11-22T06:03:55;8.53;;;4.40;;
70457;SDS011;57919;56.194;95.716;2023-11-22T06:13:57;4.53;;;1.70;;
70457;SDS011;57919;56.194;95.716;2023-11-22T06:24:00;12.55;;;4.40;;
70457;SDS011;57919;56.194;95.716;2023-11-22T06:34:04;9.00;;;3.80;;
70457;SDS011;57919;56.194;95.716;2023-11-22T06:44:06;3.50;;;1.30;;
70457;SDS011;57919;56.194;95.716;2023-11-22T06:54:08;5.95;;;2.53;;
70457;SDS011;57919;56.194;95.716;2023-11-22T07:04:11;5.63;;;2.03;;
70457;SDS011;57919;56.194;95.716;2023-11-22T07:14:14;8.77;;;3.13;;
70457;SDS011;57919;56.194;95.716;2023-11-22T07:24:16;19.00;;;4.87;;
70457;SDS011;57919;56.194;95.716;2023-11-22T07:34:19;8.75;;;2.60;;
70457;SDS011;57919;56.194;95.716;2023-11-22T07:44:22;8.10;;;4.53;;
70457;SDS011;57919;56.194;95.716;2023-11-22T07:54:25;11.00;;;3.17;;
70457;SDS011;57919;56.194;95.716;2023-11-22T08:04:27;8.93;;;4.50;;
70457;SDS011;57919;56.194;95.716;2023-11-22T08:14:33;7.07;;;2.17;;
70457;SDS011;57919;56.194;95.716;2023-11-22T08:24:35;24.13;;;6.47;;
70457;SDS011;57919;56.194;95.716;2023-11-22T08:34:37;45.88;;;20.02;;
70457;SDS011;57919;56.194;95.716;2023-11-22T08:44:39;63.55;;;20.35;;
70457;SDS011;57919;56.194;95.716;2023-11-22T08:54:41;41.27;;;19.87;;
70457;SDS011;57919;56.194;95.716;2023-11-22T09:04:43;42.57;;;16.17;;
70457;SDS011;57919;56.194;95.716;2023-11-22T09:14:45;37.55;;;15.73;;
70457;SDS011;57919;56.194;95.716;2023-11-22T09:24:47;45.63;;;18.37;;
70457;SDS011;57919;56.194;95.716;2023-11-22T09:34:49;25.03;;;12.90;;
70457;SDS011;57919;56.194;95.716;2023-11-22T09:44:51;125.45;;;53.17;;
70457;SDS011;57919;56.194;95.716;2023-11-22T09:54:55;40.50;;;17.47;;
70457;SDS011;57919;56.194;95.716;2023-11-22T10:04:57;47.40;;;21.13;;
70457;SDS011;57919;56.194;95.716;2023-11-22T10:15:12;188.27;;;77.80;;
70457;SDS011;57919;56.194;95.716;2023-11-22T10:25:15;90.03;;;37.05;;
70457;SDS011;57919;56.194;95.716;2023-11-22T10:35:20;105.27;;;35.17;;
70457;SDS011;57919;56.194;95.716;2023-11-22T10:45:23;50.67;;;21.03;;
70457;SDS011;57919;56.194;95.716;2023-11-22T10:55:31;87.95;;;30.75;;
70457;SDS011;57919;56.194;95.716;2023-11-22T11:05:34;53.30;;;24.60;;
70457;SDS011;57919;56.194;95.716;2023-11-22T11:15:40;152.97;;;58.50;;
70457;SDS011;57919;56.194;95.716;2023-11-22T11:25:47;108.75;;;39.33;;
70457;SDS011;57919;56.194;95.716;2023-11-22T11:36:01;108.33;;;46.57;;
70457;SDS011;57919;56.194;95.716;2023-11-22T11:46:06;168.90;;;66.30;;
70457;SDS011;57919;56.194;95.716;2023-11-22T11:56:10;163.98;;;58.95;;
70457;SDS011;57919;56.194;95.716;2023-11-22T12:06:15;136.18;;;62.55;;
70457;SDS011;57919;56.194;95.716;2023-11-22T12:16:18;138.40;;;59.60;;
70457;SDS011;57919;56.194;95.716;2023-11-22T12:26:20;161.33;;;69.57;;
70457;SDS011;57919;56.194;95.716;2023-11-22T12:36:22;134.40;;;51.70;;
70457;SDS011;57919;56.194;95.716;2023-11-22T12:46:24;94.97;;;46.77;;
70457;SDS011;57919;56.194;95.716;2023-11-22T12:56:27;24.00;;;13.67;;
70457;SDS011;57919;56.194;95.716;2023-11-22T13:06:30;65.70;;;15.70;;
70457;SDS011;57919;56.194;95.716;2023-11-22T13:16:32;28.73;;;10.47;;
70457;SDS011;57919;56.194;95.716;2023-11-22T13:26:36;55.20;;;26.30;;
70457;SDS011;57919;56.194;95.716;2023-11-22T13:36:38;72.68;;;33.90;;
70457;SDS011;57919;56.194;95.716;2023-11-22T13:46:40;87.10;;;49.08;;
70457;SDS011;57919;56.194;95.716;2023-11-22T13:56:42;18.37;;;9.83;;
70457;SDS011;57919;56.194;95.716;2023-11-22T14:06:44;37.67;;;11.23;;
70457;SDS011;57919;56.194;95.716;2023-11-22T14:16:47;25.45;;;10.70;;
70457;SDS011;57919;56.194;95.716;2023-11-22T14:26:50;18.83;;;10.57;;
70457;SDS011;57919;56.194;95.716;2023-11-22T14:36:52;27.73;;;13.10;;
70457;SDS011;57919;56.194;95.716;2023-11-22T14:46:55;5.15;;;2.60;;
70457;SDS011;57919;56.194;95.716;2023-11-22T14:56:59;21.17;;;16.00;;
70457;SDS011;57919;56.194;95.716;2023-11-22T15:07:03;55.20;;;27.47;;
70457;SDS011;57919;56.194;95.716;2023-11-22T15:17:09;21.55;;;11.85;;
70457;SDS011;57919;56.194;95.716;2023-11-22T15:27:11;43.25;;;24.30;;
70457;SDS011;57919;56.194;95.716;2023-11-22T15:37:13;21.07;;;9.33;;
70457;SDS011;57919;56.194;95.716;2023-11-22T15:47:17;43.47;;;17.93;;
70457;SDS011;57919;56.194;95.716;2023-11-22T15:57:19;11.82;;;7.75;;
70457;SDS011;57919;56.194;95.716;2023-11-22T16:07:21;26.77;;;16.03;;
70457;SDS011;57919;56.194;95.716;2023-11-22T16:17:23;14.80;;;10.73;;
70457;SDS011;57919;56.194;95.716;2023-11-22T16:27:25;33.60;;;16.95;;
70457;SDS011;57919;56.194;95.716;2023-11-22T16:37:27;18.70;;;12.03;;
70457;SDS011;57919;56.194;95.716;2023-11-22T16:47:30;58.20;;;19.50;;
70457;SDS011;57919;56.194;95.716;2023-11-22T16:57:34;8.43;;;3.13;;
70457;SDS011;57919;56.194;95.716;2023-11-22T17:07:37;23.10;;;11.93;;
70457;SDS011;57919;56.194;95.716;2023-11-22T17:17:39;18.00;;;10.20;;
70457;SDS011;57919;56.194;95.716;2023-11-22T17:27:41;12.63;;;3.90;;
70457;SDS011;57919;56.194;95.716;2023-11-22T17:37:43;12.63;;;7.90;;
70457;SDS011;57919;56.194;95.716;2023-11-22T17:47:45;18.40;;;6.37;;
70457;SDS011;57919;56.194;95.716;2023-11-22T17:57:47;96.03;;;41.07;;
70457;SDS011;57919;56.194;95.716;2023-11-22T18:07:49;7.88;;;4.05;;
70457;SDS011;57919;56.194;95.716;2023-11-22T18:17:51;20.03;;;12.83;;
70457;SDS011;57919;56.194;95.716;2023-11-22T18:27:54;10.83;;;4.70;;
70457;SDS011;57919;56.194;95.716;2023-11-22T18:37:55;29.83;;;12.38;;
70457;SDS011;57919;56.194;95.716;2023-11-22T18:47:58;11.95;;;2.88;;
70457;SDS011;57919;56.194;95.716;2023-11-22T18:58:00;5.70;;;3.87;;
70457;SDS011;57919;56.194;95.716;2023-11-22T19:08:05;10.73;;;4.90;;
70457;SDS011;57919;56.194;95.716;2023-11-22T19:18:08;25.65;;;15.77;;
70457;SDS011;57919;56.194;95.716;2023-11-22T19:28:10;31.10;;;11.03;;
70457;SDS011;57919;56.194;95.716;2023-11-22T19:38:13;32.40;;;12.93;;
70457;SDS011;57919;56.194;95.716;2023-11-22T19:48:15;19.88;;;10.90;;
70457;SDS011;57919;56.194;95.716;2023-11-22T19:58:17;46.73;;;18.83;;
70457;SDS011;57919;56.194;95.716;2023-11-22T20:08:19;26.50;;;11.67;;
70457;SDS011;57919;56.194;95.716;2023-11-22T20:18:22;29.55;;;16.20;;
70457;SDS011;57919;56.194;95.716;2023-11-22T20:28:24;27.08;;;10.90;;
70457;SDS011;57919;56.194;95.716;2023-11-22T20:38:26;25.93;;;12.17;;
70457;SDS011;57919;56.194;95.716;2023-11-22T20:48:28;2.90;;;2.17;;
70457;SDS011;57919;56.194;95.716;2023-11-22T20:58:30;13.85;;;7.13;;
70457;SDS011;57919;56.194;95.716;2023-11-22T21:08:34;12.67;;;4.27;;
70457;SDS011;57919;56.194;95.716;2023-11-22T21:18:36;6.90;;;4.00;;
70457;SDS011;57919;56.194;95.716;2023-11-22T21:28:39;9.60;;;3.80;;
70457;SDS011;57919;56.194;95.716;2023-11-22T21:38:43;7.40;;;4.30;;
70457;SDS011;57919;56.194;95.716;2023-11-22T21:48:45;15.10;;;7.57;;
70457;SDS011;57919;56.194;95.716;2023-11-22T21:58:47;9.40;;;5.85;;
70457;SDS011;57919;56.194;95.716;2023-11-22T22:08:49;17.77;;;7.18;;
70457;SDS011;57919;56.194;95.716;2023-11-22T22:18:51;29.50;;;16.50;;
70457;SDS011;57919;56.194;95.716;2023-11-22T22:28:53;22.37;;;13.50;;
70457;SDS011;57919;56.194;95.716;2023-11-22T22:38:55;32.10;;;15.00;;
70457;SDS011;57919;56.194;95.716;2023-11-22T22:48:58;18.17;;;6.87;;
70457;SDS011;57919;56.194;95.716;2023-11-22T22:58:59;17.87;;;9.63;;
70457;SDS011;57919;56.194;95.716;2023-11-22T23:09:02;27.15;;;20.58;;
70457;SDS011;57919;56.194;95.716;2023-11-22T23:19:05;37.40;;;19.50;;
70457;SDS011;57919;56.194;95.716;2023-11-22T23:29:08;32.37;;;17.87;;
70457;SDS011;57919;56.194;95.716;2023-11-22T23:39:10;29.83;;;15.77;;
70457;SDS011;57919;56.194;95.716;2023-11-22T23:49:13;65.95;;;31.80;;
70457;SDS011;57919;56.194;95.716;2023-11-22T23:59:16;43.07;;;18.90;;
